Time;durP1;ratioP1;P1;durP2;ratioP2;P2;SDS_P1;SDS_P2;PMS_P1;PMS_P2;Temp;Humidity;BMP_temperature;BMP_pressure;BME280_temperature;BME280_humidity;BME280_pressure;Samples;Min_cycle;Max_cycle;Signal;HPM_P1;HPM_P2
2021/06/10 00:01:44;;;;;;;8.85;5.95;;;;;;;24.79;39.30;99271.03;5071916;28;20047;-62
2021/06/10 00:04:10;;;;;;;9.40;5.93;;;;;;;24.77;39.15;99277.31;5072782;28;20044;-62
2021/06/10 00:06:36;;;;;;;8.95;5.78;;;;;;;24.77;39.34;99268.47;5072005;28;20048;-62
2021/06/10 00:09:04;;;;;;;9.57;5.90;;;;;;;24.76;39.45;99266.75;5072798;28;20635;-62
2021/06/10 00:11:30;;;;;;;8.68;5.55;;;;;;;24.75;39.40;99271.22;5072559;28;20045;-62
2021/06/10 00:13:57;;;;;;;8.55;5.70;;;;;;;24.74;39.28;99263.34;5072429;28;20045;-62
2021/06/10 00:16:23;;;;;;;8.23;5.65;;;;;;;24.74;39.30;99263.34;5072088;28;20113;-62
2021/06/10 00:18:51;;;;;;;10.35;6.00;;;;;;;24.72;39.54;99266.09;5072110;28;20498;-62
2021/06/10 00:21:17;;;;;;;8.20;5.80;;;;;;;24.70;39.59;99268.00;5072366;28;20045;-62
2021/06/10 00:23:44;;;;;;;8.27;5.90;;;;;;;24.69;39.42;99265.44;5072570;28;20040;-62
2021/06/10 00:26:11;;;;;;;8.63;6.20;;;;;;;24.69;39.58;99265.44;5072144;28;20567;-62
2021/06/10 00:28:37;;;;;;;9.07;6.10;;;;;;;24.68;39.44;99269.03;5071939;28;20051;-62
2021/06/10 00:31:04;;;;;;;9.85;5.97;;;;;;;24.67;39.59;99257.53;5072051;28;20521;-62
2021/06/10 00:33:30;;;;;;;8.70;6.05;;;;;;;24.65;39.58;99256.78;5072066;28;20048;-62
2021/06/10 00:35:56;;;;;;;8.10;5.68;;;;;;;24.65;39.66;99264.78;5072028;28;20242;-62
2021/06/10 00:38:22;;;;;;;10.10;6.80;;;;;;;24.63;39.71;99257.84;5071784;28;20048;-62
2021/06/10 00:40:49;;;;;;;7.88;5.57;;;;;;;24.61;39.86;99262.41;5070640;28;20047;-62
2021/06/10 00:43:16;;;;;;;8.18;6.00;;;;;;;24.59;39.88;99261.66;5071995;28;20101;-62
2021/06/10 00:45:42;;;;;;;8.73;6.25;;;;;;;24.59;39.93;99267.00;5071742;28;20056;-62
2021/06/10 00:48:09;;;;;;;9.93;5.93;;;;;;;24.56;39.88;99266.22;5071773;28;20499;-62
2021/06/10 00:50:38;;;;;;;10.90;6.00;;;;;;;24.58;39.96;99259.94;5071765;28;20509;-62
2021/06/10 00:53:04;;;;;;;8.10;5.80;;;;;;;24.55;39.93;99261.84;5072048;28;20045;-62
2021/06/10 00:55:31;;;;;;;9.50;5.72;;;;;;;24.54;40.05;99260.16;5071805;28;20094;-62
2021/06/10 00:57:57;;;;;;;8.60;5.93;;;;;;;24.53;40.01;99261.09;5071476;28;20049;-62
2021/06/10 01:00:24;;;;;;;8.88;6.07;;;;;;;24.52;40.02;99263.84;5072058;28;20048;-62
2021/06/10 01:02:51;;;;;;;8.77;6.10;;;;;;;24.50;40.03;99260.38;5072004;28;20052;-62
2021/06/10 01:05:17;;;;;;;9.77;6.65;;;;;;;24.49;40.19;99258.69;5072064;28;20044;-63
2021/06/10 01:07:49;;;;;;;7.80;5.82;;;;;;;24.49;40.03;99262.19;5071754;28;20067;-62
2021/06/10 01:10:20;;;;;;;9.25;6.10;;;;;;;24.48;40.25;99267.63;5071939;28;20055;-62
2021/06/10 01:12:52;;;;;;;8.43;6.05;;;;;;;24.47;40.21;99264.09;5071702;28;20044;-62
2021/06/10 01:15:18;;;;;;;9.27;6.72;;;;;;;24.46;40.27;99267.72;5072089;28;20045;-62
2021/06/10 01:17:47;;;;;;;8.90;6.22;;;;;;;24.47;40.32;99268.59;5071270;28;20052;-62
2021/06/10 01:20:14;;;;;;;9.90;6.28;;;;;;;24.46;40.35;99264.19;5071742;28;20087;-62
2021/06/10 01:22:42;;;;;;;9.13;6.32;;;;;;;24.46;40.50;99264.19;5071280;28;20037;-62
2021/06/10 01:25:14;;;;;;;8.05;5.70;;;;;;;24.44;40.53;99264.28;5071985;28;20132;-62
2021/06/10 01:27:45;;;;;;;10.05;6.32;;;;;;;24.43;40.58;99259.94;5071466;28;20074;-62
2021/06/10 01:30:13;;;;;;;8.60;6.10;;;;;;;24.43;40.37;99254.59;5071493;28;20485;-62
2021/06/10 01:32:40;;;;;;;11.20;6.43;;;;;;;24.42;40.52;99258.22;5058117;28;20049;-62
2021/06/10 01:35:08;;;;;;;8.75;5.70;;;;;;;24.42;40.50;99266.19;5071092;28;20052;-62
2021/06/10 01:37:34;;;;;;;8.98;6.35;;;;;;;24.42;40.67;99265.34;5070546;28;20056;-62
2021/06/10 01:40:00;;;;;;;13.57;6.82;;;;;;;24.42;40.67;99262.69;5073313;28;20040;-62
2021/06/10 01:42:26;;;;;;;8.85;6.28;;;;;;;24.39;40.70;99261.09;5074703;28;20048;-62
2021/06/10 01:44:54;;;;;;;8.82;6.30;;;;;;;24.38;40.82;99257.53;5074828;28;20064;-62
2021/06/10 01:47:21;;;;;;;8.95;6.35;;;;;;;24.37;40.92;99257.66;5074879;28;20048;-62
2021/06/10 01:49:47;;;;;;;8.68;6.00;;;;;;;24.36;40.74;99261.25;5074439;28;20423;-62
2021/06/10 01:52:13;;;;;;;9.95;6.95;;;;;;;24.34;40.66;99255.19;5074549;28;20055;-62
2021/06/10 01:54:39;;;;;;;9.13;6.45;;;;;;;24.32;40.77;99273.91;5074665;28;20074;-62
2021/06/10 01:57:06;;;;;;;10.38;6.10;;;;;;;24.31;40.82;99266.00;5074252;28;20067;-62
2021/06/10 01:59:32;;;;;;;9.82;6.38;;;;;;;24.32;40.71;99254.41;5074886;28;20518;-62
2021/06/10 02:02:00;;;;;;;8.77;6.28;;;;;;;24.32;41.00;99254.41;5074536;28;20044;-62
2021/06/10 02:04:26;;;;;;;10.50;6.00;;;;;;;24.31;40.96;99263.34;5075024;28;20045;-62
2021/06/10 02:06:53;;;;;;;9.18;6.05;;;;;;;24.28;40.93;99260.88;5073759;28;20496;-62
2021/06/10 02:09:20;;;;;;;8.50;6.00;;;;;;;24.24;41.11;99259.38;5074195;28;20044;-62
2021/06/10 02:11:48;;;;;;;9.70;6.63;;;;;;;24.22;41.22;99254.13;5074707;28;20044;-62
2021/06/10 02:14:14;;;;;;;10.38;6.72;;;;;;;24.21;41.00;99254.22;5056607;28;20191;-62
2021/06/10 02:16:40;;;;;;;8.48;6.40;;;;;;;24.19;41.04;99256.97;5074651;28;20105;-62
2021/06/10 02:19:08;;;;;;;10.35;6.55;;;;;;;24.18;41.13;99257.94;5074409;28;20045;-62
2021/06/10 02:21:34;;;;;;;8.38;5.85;;;;;;;24.16;41.12;99263.34;5074229;28;20048;-62
2021/06/10 02:24:01;;;;;;;10.40;6.47;;;;;;;24.14;41.13;99251.94;5074576;28;20048;-62
2021/06/10 02:26:27;;;;;;;8.52;6.10;;;;;;;24.12;41.24;99253.84;5074117;28;20048;-62
2021/06/10 02:28:53;;;;;;;9.38;6.45;;;;;;;24.12;41.28;99253.00;5074130;28;20567;-62
2021/06/10 02:31:19;;;;;;;9.15;6.55;;;;;;;24.11;41.23;99249.47;5073999;28;20052;-62
2021/06/10 02:33:45;;;;;;;8.70;5.88;;;;;;;24.12;41.31;99248.53;5074437;28;20052;-62
2021/06/10 02:36:15;;;;;;;9.52;6.03;;;;;;;24.12;41.24;99256.50;5073826;28;20399;-62
2021/06/10 02:38:44;;;;;;;9.65;6.63;;;;;;;24.09;41.33;99251.38;5073170;28;20048;-62
2021/06/10 02:41:10;;;;;;;9.73;6.70;;;;;;;24.11;41.48;99254.78;5074180;28;20068;-64
2021/06/10 02:43:36;;;;;;;8.98;6.30;;;;;;;24.08;41.42;99255.00;5073270;28;20614;-62
2021/06/10 02:46:02;;;;;;;9.05;6.03;;;;;;;24.08;41.22;99254.13;5073437;28;20045;-62
2021/06/10 02:48:29;;;;;;;9.45;6.60;;;;;;;24.06;41.67;99254.22;5073705;28;20041;-62
2021/06/10 02:50:55;;;;;;;9.00;6.35;;;;;;;24.05;41.39;99255.16;5073461;28;20053;-62
2021/06/10 02:53:23;;;;;;;8.93;6.30;;;;;;;24.04;41.58;99256.13;5073750;28;20048;-62
2021/06/10 02:55:50;;;;;;;9.40;6.38;;;;;;;24.04;41.78;99248.16;5060922;28;20040;-62
2021/06/10 02:58:17;;;;;;;9.32;6.50;;;;;;;24.04;41.53;99263.25;5073289;28;20048;-62
2021/06/10 03:00:43;;;;;;;9.80;6.40;;;;;;;24.05;41.48;99249.84;5073179;28;20040;-62
2021/06/10 03:03:11;;;;;;;10.13;6.80;;;;;;;24.04;41.45;99250.81;5073569;28;20059;-62
2021/06/10 03:05:37;;;;;;;8.75;6.18;;;;;;;24.04;41.47;99256.13;5073738;28;20052;-62
2021/06/10 03:08:04;;;;;;;9.57;6.00;;;;;;;24.02;41.54;99258.03;5073758;28;20051;-62
2021/06/10 03:10:32;;;;;;;8.48;6.00;;;;;;;23.98;41.61;99254.69;5073602;28;20501;-62
2021/06/10 03:12:59;;;;;;;9.35;6.60;;;;;;;23.97;41.75;99263.63;5073163;28;20046;-62
2021/06/10 03:15:25;;;;;;;9.13;6.18;;;;;;;23.97;41.62;99262.78;5073012;28;20070;-62
2021/06/10 03:17:51;;;;;;;10.07;6.47;;;;;;;23.96;41.85;99263.72;5073453;28;20057;-62
2021/06/10 03:20:17;;;;;;;10.35;6.53;;;;;;;23.95;41.62;99260.19;5073195;28;20048;-62
2021/06/10 03:22:44;;;;;;;8.60;6.07;;;;;;;23.95;41.91;99264.69;5073255;28;20118;-63
2021/06/10 03:25:10;;;;;;;10.88;6.57;;;;;;;23.93;41.77;99266.56;5072905;28;20518;-63
2021/06/10 03:27:38;;;;;;;9.38;6.18;;;;;;;23.92;41.87;99265.72;5072860;28;20086;-62
2021/06/10 03:30:05;;;;;;;9.57;6.60;;;;;;;23.91;41.82;99263.16;5072791;28;20067;-62
2021/06/10 03:32:31;;;;;;;8.90;6.28;;;;;;;23.92;41.69;99268.38;5072887;28;20045;-61
2021/06/10 03:34:57;;;;;;;9.00;5.90;;;;;;;23.93;41.71;99258.59;5072751;28;20045;-62
2021/06/10 03:37:24;;;;;;;9.15;6.55;;;;;;;23.92;41.91;99264.84;5072169;28;20048;-62
2021/06/10 03:39:50;;;;;;;10.18;6.80;;;;;;;23.92;42.06;99270.16;5072174;28;20457;-62
2021/06/10 03:42:16;;;;;;;10.55;6.63;;;;;;;23.93;41.87;99271.91;5072756;28;20041;-62
2021/06/10 03:44:44;;;;;;;9.35;6.40;;;;;;;23.93;41.88;99277.22;5073160;28;20048;-62
2021/06/10 03:47:11;;;;;;;9.68;6.30;;;;;;;23.93;41.97;99280.72;5072474;28;20051;-62
2021/06/10 03:49:38;;;;;;;8.75;6.18;;;;;;;23.93;41.71;99270.09;5072491;28;20046;-62
2021/06/10 03:52:05;;;;;;;8.95;6.30;;;;;;;23.92;42.01;99276.38;5072592;28;20048;-62
2021/06/10 03:54:32;;;;;;;9.50;6.07;;;;;;;23.92;41.91;99276.38;5072534;28;20045;-62
2021/06/10 03:56:58;;;;;;;9.70;6.18;;;;;;;23.93;42.06;99272.75;5071888;28;20105;-62
2021/06/10 03:59:24;;;;;;;9.13;6.00;;;;;;;23.93;41.80;99271.91;5071336;28;20525;-62
2021/06/10 04:01:52;;;;;;;8.98;6.43;;;;;;;23.94;41.93;99273.59;5071724;28;20048;-62
2021/06/10 04:04:19;;;;;;;9.23;5.97;;;;;;;23.95;41.91;99278.81;5066846;28;20044;-62
2021/06/10 04:06:45;;;;;;;10.45;6.57;;;;;;;23.90;42.08;99272.06;5071946;28;20438;-57
2021/06/10 04:09:11;;;;;;;9.38;6.45;;;;;;;23.82;42.38;99279.66;5072175;28;20491;-58
2021/06/10 04:11:38;;;;;;;11.20;6.97;;;;;;;23.75;42.66;99282.66;5072140;28;20045;-57
2021/06/10 04:14:04;;;;;;;10.10;6.63;;;;;;;23.75;42.51;99281.81;5072088;28;20052;-56
2021/06/10 04:16:30;;;;;;;9.27;6.70;;;;;;;23.71;42.73;99282.91;5071682;28;20049;-57
2021/06/10 04:18:58;;;;;;;11.55;6.70;;;;;;;23.70;42.89;99287.38;5081583;28;20090;-56
2021/06/10 04:21:24;;;;;;;10.57;6.35;;;;;;;23.62;43.27;99284.34;5092489;28;20044;-56
2021/06/10 04:23:50;;;;;;;14.27;7.07;;;;;;;23.58;43.77;99288.13;5092620;28;20408;-56
2021/06/10 04:26:17;;;;;;;10.30;6.43;;;;;;;23.57;43.01;99287.28;5090257;28;20444;-56
2021/06/10 04:28:44;;;;;;;11.23;6.55;;;;;;;23.48;43.56;99287.81;5071846;28;20044;-57
2021/06/10 04:31:11;;;;;;;9.50;6.47;;;;;;;23.46;43.55;99283.50;5072083;28;20048;-58
2021/06/10 04:33:37;;;;;;;10.13;6.03;;;;;;;23.41;43.86;99282.94;5072037;28;20048;-58
2021/06/10 04:36:05;;;;;;;13.98;6.25;;;;;;;23.46;43.83;99283.50;5072167;28;20044;-57
2021/06/10 04:38:31;;;;;;;9.63;6.35;;;;;;;23.45;43.50;99281.81;5071694;28;20123;-56
2021/06/10 04:40:57;;;;;;;10.57;6.00;;;;;;;23.44;43.59;99285.41;5070337;28;20044;-57
2021/06/10 04:43:23;;;;;;;12.60;6.22;;;;;;;23.43;43.44;99281.91;5076439;28;20494;-57
2021/06/10 04:45:50;;;;;;;14.60;6.03;;;;;;;23.47;43.25;99285.22;5092334;28;20412;-57
2021/06/10 04:48:16;;;;;;;9.90;5.82;;;;;;;23.49;42.98;99280.69;5085637;28;20044;-56
2021/06/10 04:50:42;;;;;;;10.38;6.20;;;;;;;23.52;43.02;99291.16;5088963;28;20048;-57
2021/06/10 04:53:10;;;;;;;10.73;6.45;;;;;;;23.52;42.93;99281.38;5091847;28;20048;-57
2021/06/10 04:55:36;;;;;;;11.05;6.85;;;;;;;23.57;42.83;99286.41;5081751;28;20045;-57
2021/06/10 04:58:02;;;;;;;11.85;6.20;;;;;;;23.61;42.76;99284.41;5072063;28;20041;-57
2021/06/10 05:00:29;;;;;;;9.85;6.50;;;;;;;23.65;42.71;99278.84;5072299;28;20090;-57
2021/06/10 05:02:55;;;;;;;9.93;6.03;;;;;;;23.67;42.27;99276.94;5070555;28;20053;-57
2021/06/10 05:05:22;;;;;;;9.80;6.10;;;;;;;23.71;42.05;99283.81;5071956;28;20045;-57
2021/06/10 05:07:48;;;;;;;8.10;5.38;;;;;;;23.75;42.24;99287.13;5071754;28;20044;-58
2021/06/10 05:10:16;;;;;;;9.93;5.90;;;;;;;23.77;42.08;99279.91;5072195;28;20044;-58
2021/06/10 05:12:42;;;;;;;10.25;6.10;;;;;;;23.82;42.05;99283.16;5071597;28;20055;-58
2021/06/10 05:15:09;;;;;;;9.98;5.53;;;;;;;23.84;42.01;99277.75;5074167;28;20052;-57
2021/06/10 05:17:35;;;;;;;9.43;5.47;;;;;;;23.90;41.81;99277.38;5075411;28;20048;-57
2021/06/10 05:20:02;;;;;;;9.90;5.65;;;;;;;23.93;41.87;99278.06;5075696;28;20040;-57
2021/06/10 05:22:28;;;;;;;10.52;5.82;;;;;;;23.95;41.74;99280.63;5075628;28;20041;-57
2021/06/10 05:24:55;;;;;;;9.02;5.30;;;;;;;24.00;41.43;99283.88;5075514;28;20045;-57
2021/06/10 05:27:22;;;;;;;8.27;5.50;;;;;;;24.02;41.44;99282.00;5075467;28;20045;-57
2021/06/10 05:29:48;;;;;;;8.27;5.30;;;;;;;24.07;41.53;99279.88;5075342;28;20074;-57
2021/06/10 05:32:15;;;;;;;8.70;5.20;;;;;;;24.11;41.33;99281.41;5075106;28;20045;-57
2021/06/10 05:34:41;;;;;;;8.07;5.15;;;;;;;24.17;41.51;99283.72;5075295;28;20052;-57
2021/06/10 05:37:07;;;;;;;7.85;5.22;;;;;;;24.21;41.25;99281.69;5074938;28;20055;-57
2021/06/10 05:39:33;;;;;;;10.88;5.30;;;;;;;24.26;41.08;99286.75;5075449;28;20048;-57
2021/06/10 05:42:00;;;;;;;7.38;4.93;;;;;;;24.29;40.92;99276.78;5075150;28;20045;-57
2021/06/10 05:44:27;;;;;;;9.15;5.32;;;;;;;24.33;40.96;99286.28;5075310;28;20178;-57
2021/06/10 05:46:53;;;;;;;8.40;4.60;;;;;;;24.35;40.78;99281.72;5075007;28;20048;-57
2021/06/10 05:49:20;;;;;;;8.50;4.97;;;;;;;24.37;40.31;99282.47;5074916;28;20040;-57
2021/06/10 05:51:46;;;;;;;8.65;4.80;;;;;;;24.40;40.53;99276.09;5074803;28;20078;-57
2021/06/10 05:54:12;;;;;;;7.97;4.30;;;;;;;24.43;40.17;99269.72;5075070;28;20109;-57
2021/06/10 05:56:38;;;;;;;8.73;4.45;;;;;;;24.46;39.87;99267.72;5074467;28;20098;-57
2021/06/10 05:59:04;;;;;;;9.30;3.95;;;;;;;24.48;39.85;99273.78;5074756;28;20511;-57
2021/06/10 06:01:32;;;;;;;6.95;4.15;;;;;;;24.52;39.73;99271.84;5075005;28;20048;-57
2021/06/10 06:03:58;;;;;;;6.43;4.00;;;;;;;24.54;39.59;99269.91;5074516;28;20045;-57
2021/06/10 06:06:25;;;;;;;7.38;4.13;;;;;;;24.58;39.13;99273.25;5074801;28;20041;-57
2021/06/10 06:08:51;;;;;;;6.85;3.78;;;;;;;24.59;38.65;99275.81;5074840;28;20040;-57
2021/06/10 06:11:18;;;;;;;7.28;4.00;;;;;;;24.61;38.54;99275.75;5074888;28;20044;-57
2021/06/10 06:13:46;;;;;;;6.80;3.75;;;;;;;24.62;38.60;99283.63;5074636;28;20056;-57
2021/06/10 06:16:16;;;;;;;8.38;3.75;;;;;;;24.66;38.95;99281.59;5074697;28;20048;-57
2021/06/10 06:18:43;;;;;;;6.38;3.70;;;;;;;24.70;38.52;99283.16;5074655;28;20044;-57
2021/06/10 06:21:10;;;;;;;10.05;3.97;;;;;;;24.70;38.60;99281.34;5074694;28;20098;-57
2021/06/10 06:23:36;;;;;;;8.38;3.80;;;;;;;24.73;38.30;99289.13;5074418;28;20059;-57
2021/06/10 06:26:02;;;;;;;7.90;3.92;;;;;;;24.74;38.04;99282.00;5074025;28;20071;-57
2021/06/10 06:28:28;;;;;;;7.30;3.30;;;;;;;24.78;38.02;99286.19;5074642;28;20049;-57
2021/06/10 06:30:55;;;;;;;7.20;3.75;;;;;;;24.82;37.78;99285.03;5074169;28;20049;-57
2021/06/10 06:33:21;;;;;;;8.18;3.70;;;;;;;24.84;37.71;99280.44;5073910;28;20049;-57
2021/06/10 06:35:48;;;;;;;6.53;3.60;;;;;;;24.86;37.24;99283.03;5074019;28;20517;-57
2021/06/10 06:38:15;;;;;;;5.07;3.28;;;;;;;24.90;37.66;99284.53;5074172;28;20462;-57
2021/06/10 06:40:41;;;;;;;5.80;3.38;;;;;;;24.92;37.34;99278.13;5073961;28;20047;-57
2021/06/10 06:43:08;;;;;;;7.60;3.60;;;;;;;24.94;36.86;99284.22;5074128;28;20044;-57
2021/06/10 06:45:34;;;;;;;6.03;3.60;;;;;;;24.95;36.67;99283.28;5072849;28;20044;-57
2021/06/10 06:48:01;;;;;;;6.00;3.50;;;;;;;24.99;36.90;99283.06;5073576;28;20105;-57
2021/06/10 06:50:27;;;;;;;7.22;3.53;;;;;;;25.01;36.58;99289.16;5074044;28;20041;-57
2021/06/10 06:52:54;;;;;;;6.13;3.40;;;;;;;25.02;36.42;99285.53;5073548;28;20478;-57
2021/06/10 06:55:21;;;;;;;7.30;3.83;;;;;;;25.04;36.41;99286.28;5073657;28;20414;-57
2021/06/10 06:57:47;;;;;;;7.60;4.03;;;;;;;25.05;35.91;99288.03;5073471;28;20052;-58
2021/06/10 07:00:14;;;;;;;6.75;3.63;;;;;;;25.08;36.02;99282.47;5073924;28;20052;-57
2021/06/10 07:02:40;;;;;;;5.72;3.22;;;;;;;25.13;36.16;99285.69;5073842;28;20091;-58
2021/06/10 07:05:07;;;;;;;5.72;3.55;;;;;;;25.13;35.64;99280.38;5073429;28;20048;-58
2021/06/10 07:07:33;;;;;;;7.00;3.60;;;;;;;25.17;36.15;99287.22;5073342;28;20044;-58
2021/06/10 07:10:01;;;;;;;8.02;4.22;;;;;;;25.18;35.54;99283.56;5073752;28;20048;-58
2021/06/10 07:12:27;;;;;;;5.15;3.25;;;;;;;25.19;35.09;99274.63;5073639;28;20475;-58
2021/06/10 07:14:53;;;;;;;6.07;3.30;;;;;;;25.24;35.75;99283.22;5073264;28;20048;-58
2021/06/10 07:17:19;;;;;;;8.35;3.70;;;;;;;25.27;35.90;99283.00;5072227;28;20048;-57
2021/06/10 07:19:47;;;;;;;5.97;3.40;;;;;;;25.28;35.25;99282.06;5073183;28;20059;-57
2021/06/10 07:22:13;;;;;;;11.23;3.80;;;;;;;25.33;35.55;99287.06;5073449;28;20044;-57
2021/06/10 07:24:40;;;;;;;6.13;3.30;;;;;;;25.34;35.68;99275.47;5073212;28;20418;-58
2021/06/10 07:27:09;;;;;;;5.70;3.30;;;;;;;25.39;35.61;99291.16;5072959;28;20499;-57
2021/06/10 07:29:35;;;;;;;8.48;3.47;;;;;;;25.39;35.68;99285.81;5072953;28;20041;-57
2021/06/10 07:32:01;;;;;;;5.80;3.28;;;;;;;25.41;35.43;99286.56;5073005;28;20056;-57
2021/06/10 07:34:28;;;;;;;6.28;3.30;;;;;;;25.41;35.23;99290.09;5072724;28;20491;-57
2021/06/10 08:19:05;;;;;;;5.90;3.10;;;;;;;24.76;35.42;99312.06;5131046;27;20403;-56
2021/06/10 09:33:11;;;;;;;5.47;2.50;;;;;;;24.96;34.62;99311.63;5130822;27;20354;-57
